sensor_id;sensor_type;location;lat;lon;timestamp;pressure;altitude;pressure_sealevel;temperature;humidity
4814;BME280;15375;48.540;9.268;2023-05-11T00:00:36;97156.25;;;11.51;100.00
4814;BME280;15375;48.540;9.268;2023-05-11T00:03:02;97134.16;;;11.30;100.00
4814;BME280;15375;48.540;9.268;2023-05-11T00:05:27;97112.16;;;11.21;100.00
4814;BME280;15375;48.540;9.268;2023-05-11T00:07:52;97075.31;;;10.97;100.00
4814;BME280;15375;48.540;9.268;2023-05-11T00:10:18;97144.06;;;11.40;100.00
4814;BME280;15375;48.540;9.268;2023-05-11T00:12:43;97154.03;;;11.46;100.00
4814;BME280;15375;48.540;9.268;2023-05-11T00:15:09;97150.13;;;11.47;100.00
4814;BME280;15375;48.540;9.268;2023-05-11T00:17:34;97157.38;;;11.54;100.00
4814;BME280;15375;48.540;9.268;2023-05-11T00:20:00;97123.59;;;11.32;100.00
4814;BME280;15375;48.540;9.268;2023-05-11T00:22:25;97150.53;;;11.46;100.00
4814;BME280;15375;48.540;9.268;2023-05-11T00:24:54;97141.34;;;11.40;100.00
4814;BME280;15375;48.540;9.268;2023-05-11T00:27:19;97147.81;;;11.46;100.00
4814;BME280;15375;48.540;9.268;2023-05-11T00:29:45;97129.38;;;11.34;100.00
4814;BME280;15375;48.540;9.268;2023-05-11T00:32:10;97145.06;;;11.46;100.00
4814;BME280;15375;48.540;9.268;2023-05-11T00:34:35;97125.09;;;11.33;100.00
4814;BME280;15375;48.540;9.268;2023-05-11T00:37:01;97118.31;;;11.25;100.00
4814;BME280;15375;48.540;9.268;2023-05-11T00:39:27;97126.59;;;11.37;100.00
4814;BME280;15375;48.540;9.268;2023-05-11T00:41:52;97148.16;;;11.48;100.00
4814;BME280;15375;48.540;9.268;2023-05-11T00:44:18;97129.06;;;11.32;100.00
4814;BME280;15375;48.540;9.268;2023-05-11T00:46:43;97150.47;;;11.49;100.00
4814;BME280;15375;48.540;9.268;2023-05-11T00:49:09;97141.69;;;11.42;100.00
4814;BME280;15375;48.540;9.268;2023-05-11T00:51:35;97126.31;;;11.32;100.00
4814;BME280;15375;48.540;9.268;2023-05-11T00:54:00;97138.94;;;11.42;100.00
4814;BME280;15375;48.540;9.268;2023-05-11T00:56:26;97150.13;;;11.47;100.00
4814;BME280;15375;48.540;9.268;2023-05-11T00:58:52;97133.91;;;11.24;100.00
4814;BME280;15375;48.540;9.268;2023-05-11T01:01:17;97122.22;;;11.24;100.00
4814;BME280;15375;48.540;9.268;2023-05-11T01:03:43;97114.97;;;11.17;100.00
4814;BME280;15375;48.540;9.268;2023-05-11T01:08:50;97091.34;;;11.11;100.00
4814;BME280;15375;48.540;9.268;2023-05-11T01:11:25;97114.38;;;11.26;100.00
4814;BME280;15375;48.540;9.268;2023-05-11T01:13:55;97138.94;;;11.42;100.00
4814;BME280;15375;48.540;9.268;2023-05-11T01:16:24;97129.91;;;11.29;100.00
4814;BME280;15375;48.540;9.268;2023-05-11T01:21:50;97131.19;;;11.24;100.00
4814;BME280;15375;48.540;9.268;2023-05-11T01:24:29;97140.31;;;11.34;100.00
4814;BME280;15375;48.540;9.268;2023-05-11T01:27:19;97135.69;;;11.31;100.00
4814;BME280;15375;48.540;9.268;2023-05-11T01:32:43;97140.63;;;11.36;100.00
4814;BME280;15375;48.540;9.268;2023-05-11T01:35:17;97146.88;;;11.36;100.00
4814;BME280;15375;48.540;9.268;2023-05-11T01:37:48;97137.91;;;11.36;100.00
4814;BME280;15375;48.540;9.268;2023-05-11T01:40:15;97136.53;;;11.28;100.00
4814;BME280;15375;48.540;9.268;2023-05-11T01:42:46;97134.31;;;11.23;100.00
4814;BME280;15375;48.540;9.268;2023-05-11T01:45:13;97140.31;;;11.34;100.00
4814;BME280;15375;48.540;9.268;2023-05-11T01:47:40;97113.69;;;11.22;100.00
4814;BME280;15375;48.540;9.268;2023-05-11T01:50:07;97134.84;;;11.34;100.00
4814;BME280;15375;48.540;9.268;2023-05-11T01:52:34;97111.38;;;11.20;100.00
4814;BME280;15375;48.540;9.268;2023-05-11T01:55:03;97134.75;;;11.21;100.00
4814;BME280;15375;48.540;9.268;2023-05-11T01:57:29;97136.81;;;11.33;100.00
4814;BME280;15375;48.540;9.268;2023-05-11T01:59:55;97142.00;;;11.28;100.00
4814;BME280;15375;48.540;9.268;2023-05-11T02:02:22;97156.34;;;11.32;100.00
4814;BME280;15375;48.540;9.268;2023-05-11T02:04:50;97155.13;;;11.33;100.00
4814;BME280;15375;48.540;9.268;2023-05-11T02:07:16;97139.88;;;11.19;100.00
4814;BME280;15375;48.540;9.268;2023-05-11T02:09:43;97138.16;;;11.25;100.00
4814;BME280;15375;48.540;9.268;2023-05-11T02:12:11;97120.06;;;11.15;100.00
4814;BME280;15375;48.540;9.268;2023-05-11T02:14:38;97137.31;;;11.28;100.00
4814;BME280;15375;48.540;9.268;2023-05-11T02:17:05;97092.69;;;11.03;100.00
4814;BME280;15375;48.540;9.268;2023-05-11T02:19:32;97133.56;;;11.22;100.00
4814;BME280;15375;48.540;9.268;2023-05-11T02:21:59;97152.78;;;11.35;100.00
4814;BME280;15375;48.540;9.268;2023-05-11T02:24:26;97099.44;;;10.98;100.00
4814;BME280;15375;48.540;9.268;2023-05-11T02:26:52;97090.28;;;10.88;100.00
4814;BME280;15375;48.540;9.268;2023-05-11T02:29:18;97136.44;;;11.15;100.00
4814;BME280;15375;48.540;9.268;2023-05-11T02:31:46;97123.69;;;11.12;100.00
4814;BME280;15375;48.540;9.268;2023-05-11T02:34:18;97128.69;;;11.14;100.00
4814;BME280;15375;48.540;9.268;2023-05-11T02:36:48;97130.75;;;11.10;100.00
4814;BME280;15375;48.540;9.268;2023-05-11T02:39:14;97146.63;;;11.15;100.00
4814;BME280;15375;48.540;9.268;2023-05-11T02:41:43;97085.69;;;10.85;100.00
4814;BME280;15375;48.540;9.268;2023-05-11T02:44:13;97127.59;;;11.11;100.00
4814;BME280;15375;48.540;9.268;2023-05-11T02:46:40;97145.25;;;11.23;100.00
4814;BME280;15375;48.540;9.268;2023-05-11T02:49:08;97100.38;;;10.92;100.00
4814;BME280;15375;48.540;9.268;2023-05-11T02:51:40;97138.78;;;11.17;100.00
4814;BME280;15375;48.540;9.268;2023-05-11T02:54:08;97133.31;;;11.17;100.00
4814;BME280;15375;48.540;9.268;2023-05-11T02:56:35;97127.16;;;11.13;100.00
4814;BME280;15375;48.540;9.268;2023-05-11T02:59:02;97104.31;;;11.07;100.00
4814;BME280;15375;48.540;9.268;2023-05-11T03:01:28;97079.38;;;10.88;100.00
4814;BME280;15375;48.540;9.268;2023-05-11T03:03:53;97129.28;;;11.21;100.00
4814;BME280;15375;48.540;9.268;2023-05-11T03:06:18;97134.75;;;11.21;100.00
4814;BME280;15375;48.540;9.268;2023-05-11T03:08:44;97092.00;;;10.99;100.00
4814;BME280;15375;48.540;9.268;2023-05-11T03:11:10;97124.59;;;11.22;100.00
4814;BME280;15375;48.540;9.268;2023-05-11T03:13:39;97132.63;;;11.29;100.00
4814;BME280;15375;48.540;9.268;2023-05-11T03:16:06;97117.53;;;11.24;100.00
4814;BME280;15375;48.540;9.268;2023-05-11T03:18:32;97123.66;;;11.28;100.00
4814;BME280;15375;48.540;9.268;2023-05-11T03:20:59;97103.34;;;11.13;100.00
4814;BME280;15375;48.540;9.268;2023-05-11T03:23:25;97121.19;;;11.18;100.00
4814;BME280;15375;48.540;9.268;2023-05-11T03:25:51;97109.16;;;11.15;100.00
4814;BME280;15375;48.540;9.268;2023-05-11T03:28:18;97084.50;;;11.03;100.00
4814;BME280;15375;48.540;9.268;2023-05-11T03:30:44;97096.78;;;11.11;100.00
4814;BME280;15375;48.540;9.268;2023-05-11T03:33:12;97106.00;;;11.17;100.00
4814;BME280;15375;48.540;9.268;2023-05-11T03:35:39;97107.19;;;11.16;100.00
4814;BME280;15375;48.540;9.268;2023-05-11T03:38:08;97096.88;;;11.07;100.00
4814;BME280;15375;48.540;9.268;2023-05-11T03:40:36;97126.50;;;11.25;100.00
4814;BME280;15375;48.540;9.268;2023-05-11T03:43:04;97118.38;;;11.21;100.00
4814;BME280;15375;48.540;9.268;2023-05-11T03:45:30;97079.91;;;11.00;100.00
4814;BME280;15375;48.540;9.268;2023-05-11T03:47:58;97114.47;;;11.22;100.00
4814;BME280;15375;48.540;9.268;2023-05-11T03:50:25;97119.16;;;11.22;100.00
4814;BME280;15375;48.540;9.268;2023-05-11T03:52:51;97073.09;;;10.92;100.00
4814;BME280;15375;48.540;9.268;2023-05-11T03:55:16;97114.47;;;11.22;100.00
4814;BME280;15375;48.540;9.268;2023-05-11T03:57:42;97103.63;;;11.19;100.00
4814;BME280;15375;48.540;9.268;2023-05-11T04:00:09;97084.16;;;11.01;100.00
4814;BME280;15375;48.540;9.268;2023-05-11T04:02:35;97112.06;;;11.24;100.00
4814;BME280;15375;48.540;9.268;2023-05-11T04:05:08;97115.22;;;11.23;100.00
4814;BME280;15375;48.540;9.268;2023-05-11T04:07:35;97113.09;;;11.14;100.00
4814;BME280;15375;48.540;9.268;2023-05-11T04:10:01;97104.38;;;11.03;100.00
4814;BME280;15375;48.540;9.268;2023-05-11T04:12:27;97073.41;;;10.77;100.00
4814;BME280;15375;48.540;9.268;2023-05-11T04:14:52;97104.97;;;10.95;100.00
4814;BME280;15375;48.540;9.268;2023-05-11T04:17:18;97109.56;;;10.98;100.00
4814;BME280;15375;48.540;9.268;2023-05-11T04:19:43;97083.47;;;10.80;100.00
4814;BME280;15375;48.540;9.268;2023-05-11T04:22:08;97111.44;;;11.01;100.00
4814;BME280;15375;48.540;9.268;2023-05-11T04:24:36;97112.81;;;10.93;100.00
4814;BME280;15375;48.540;9.268;2023-05-11T04:27:02;97103.50;;;10.90;100.00
4814;BME280;15375;48.540;9.268;2023-05-11T04:29:28;97090.81;;;10.83;100.00
4814;BME280;15375;48.540;9.268;2023-05-11T04:31:53;97080.41;;;10.78;100.00
4814;BME280;15375;48.540;9.268;2023-05-11T04:34:19;97119.13;;;11.06;100.00
4814;BME280;15375;48.540;9.268;2023-05-11T04:36:46;97106.16;;;10.94;100.00
4814;BME280;15375;48.540;9.268;2023-05-11T04:39:12;97116.75;;;10.92;100.00
4814;BME280;15375;48.540;9.268;2023-05-11T04:41:37;97107.59;;;10.82;100.00
4814;BME280;15375;48.540;9.268;2023-05-11T04:44:03;97091.31;;;10.78;100.00
4814;BME280;15375;48.540;9.268;2023-05-11T04:46:28;97107.34;;;10.93;100.00
4814;BME280;15375;48.540;9.268;2023-05-11T04:48:53;97087.31;;;10.83;100.00
4814;BME280;15375;48.540;9.268;2023-05-11T04:51:19;97120.75;;;11.03;100.00
4814;BME280;15375;48.540;9.268;2023-05-11T04:53:45;97108.06;;;10.97;100.00
4814;BME280;15375;48.540;9.268;2023-05-11T04:56:10;97108.38;;;10.99;100.00
4814;BME280;15375;48.540;9.268;2023-05-11T04:58:36;97106.34;;;11.03;100.00
4814;BME280;15375;48.540;9.268;2023-05-11T05:01:02;97121.69;;;11.13;100.00
4814;BME280;15375;48.540;9.268;2023-05-11T05:03:27;97079.38;;;10.88;100.00
4814;BME280;15375;48.540;9.268;2023-05-11T05:05:52;97071.19;;;10.88;100.00
4814;BME280;15375;48.540;9.268;2023-05-11T05:08:18;97123.16;;;11.17;100.00
4814;BME280;15375;48.540;9.268;2023-05-11T05:10:46;97094.66;;;11.02;100.00
4814;BME280;15375;48.540;9.268;2023-05-11T05:13:11;97116.59;;;11.15;100.00
4814;BME280;15375;48.540;9.268;2023-05-11T05:15:36;97108.91;;;11.10;100.00
4814;BME280;15375;48.540;9.268;2023-05-11T05:18:02;97090.22;;;11.08;100.00
4814;BME280;15375;48.540;9.268;2023-05-11T05:20:27;97118.38;;;11.21;100.00
4814;BME280;15375;48.540;9.268;2023-05-11T05:22:52;97123.31;;;11.26;100.00
4814;BME280;15375;48.540;9.268;2023-05-11T05:25:19;97092.53;;;11.10;100.00
4814;BME280;15375;48.540;9.268;2023-05-11T05:27:45;97095.09;;;11.17;100.00
4814;BME280;15375;48.540;9.268;2023-05-11T05:30:11;97120.25;;;11.40;100.00
4814;BME280;15375;48.540;9.268;2023-05-11T05:32:36;97120.16;;;11.44;100.00
4814;BME280;15375;48.540;9.268;2023-05-11T05:35:01;97122.38;;;11.49;100.00
4814;BME280;15375;48.540;9.268;2023-05-11T05:37:27;97101.50;;;11.42;100.00
4814;BME280;15375;48.540;9.268;2023-05-11T05:39:52;97108.38;;;11.47;100.00
4814;BME280;15375;48.540;9.268;2023-05-11T05:42:20;97132.28;;;11.59;100.00
4814;BME280;15375;48.540;9.268;2023-05-11T05:44:46;97118.34;;;11.53;100.00
4814;BME280;15375;48.540;9.268;2023-05-11T05:47:12;97118.34;;;11.53;100.00
4814;BME280;15375;48.540;9.268;2023-05-11T05:49:37;97113.59;;;11.41;100.00
4814;BME280;15375;48.540;9.268;2023-05-11T05:52:02;97113.78;;;11.34;100.00
4814;BME280;15375;48.540;9.268;2023-05-11T05:54:28;97113.50;;;11.29;100.00
4814;BME280;15375;48.540;9.268;2023-05-11T05:56:53;97136.28;;;11.54;100.00
4814;BME280;15375;48.540;9.268;2023-05-11T05:59:18;97120.69;;;11.39;100.00
4814;BME280;15375;48.540;9.268;2023-05-11T06:01:47;97125.97;;;11.46;100.00
4814;BME280;15375;48.540;9.268;2023-05-11T06:04:13;97138.75;;;11.49;100.00
4814;BME280;15375;48.540;9.268;2023-05-11T06:06:39;97135.53;;;11.54;100.00
4814;BME280;15375;48.540;9.268;2023-05-11T06:09:04;97118.63;;;11.43;100.00
4814;BME280;15375;48.540;9.268;2023-05-11T06:11:30;97131.00;;;11.47;100.00
4814;BME280;15375;48.540;9.268;2023-05-11T06:13:55;97118.31;;;11.25;100.00
4814;BME280;15375;48.540;9.268;2023-05-11T06:16:21;97140.31;;;11.50;100.00
4814;BME280;15375;48.540;9.268;2023-05-11T06:18:46;97129.63;;;11.55;100.00
4814;BME280;15375;48.540;9.268;2023-05-11T06:21:12;97138.59;;;11.72;100.00
4814;BME280;15375;48.540;9.268;2023-05-11T06:23:37;97129.56;;;11.75;100.00
4814;BME280;15375;48.540;9.268;2023-05-11T06:26:03;97102.56;;;11.61;100.00
4814;BME280;15375;48.540;9.268;2023-05-11T06:28:28;97148.44;;;11.98;100.00
4814;BME280;15375;48.540;9.268;2023-05-11T06:30:57;97116.03;;;11.84;100.00
4814;BME280;15375;48.540;9.268;2023-05-11T06:33:23;97146.25;;;11.93;100.00
4814;BME280;15375;48.540;9.268;2023-05-11T06:35:49;97136.84;;;11.94;100.00
4814;BME280;15375;48.540;9.268;2023-05-11T06:38:14;97120.38;;;11.98;100.00
4814;BME280;15375;48.540;9.268;2023-05-11T06:40:40;97133.97;;;12.14;100.00
4814;BME280;15375;48.540;9.268;2023-05-11T06:43:05;97125.97;;;12.07;100.00
4814;BME280;15375;48.540;9.268;2023-05-11T06:45:31;97117.31;;;12.08;100.00
4814;BME280;15375;48.540;9.268;2023-05-11T06:47:56;97134.34;;;12.29;100.00
4814;BME280;15375;48.540;9.268;2023-05-11T06:50:21;97140.50;;;12.33;100.00
4814;BME280;15375;48.540;9.268;2023-05-11T06:52:48;97142.69;;;12.38;100.00
4814;BME280;15375;48.540;9.268;2023-05-11T06:55:13;97143.91;;;12.37;100.00
4814;BME280;15375;48.540;9.268;2023-05-11T06:57:39;97144.13;;;12.42;100.00
4814;BME280;15375;48.540;9.268;2023-05-11T07:00:05;97138.22;;;12.44;100.00
4814;BME280;15375;48.540;9.268;2023-05-11T07:02:30;97138.56;;;12.46;100.00
4814;BME280;15375;48.540;9.268;2023-05-11T07:04:56;97139.13;;;12.53;100.00
4814;BME280;15375;48.540;9.268;2023-05-11T07:07:22;97148.22;;;12.63;100.00
4814;BME280;15375;48.540;9.268;2023-05-11T07:09:48;97138.25;;;12.56;100.00
4814;BME280;15375;48.540;9.268;2023-05-11T07:12:13;97059.25;;;12.04;100.00
4814;BME280;15375;48.540;9.268;2023-05-11T07:14:39;97115.47;;;12.47;100.00
4814;BME280;15375;48.540;9.268;2023-05-11T07:17:04;97121.41;;;12.58;100.00
4814;BME280;15375;48.540;9.268;2023-05-11T07:19:29;97113.06;;;12.49;100.00
4814;BME280;15375;48.540;9.268;2023-05-11T07:21:55;97159.84;;;12.79;100.00
4814;BME280;15375;48.540;9.268;2023-05-11T07:24:20;97152.63;;;12.73;100.00
4814;BME280;15375;48.540;9.268;2023-05-11T07:26:46;97154.38;;;12.79;100.00
4814;BME280;15375;48.540;9.268;2023-05-11T07:29:13;97108.34;;;12.37;100.00
4814;BME280;15375;48.540;9.268;2023-05-11T07:31:38;97135.72;;;12.49;100.00
4814;BME280;15375;48.540;9.268;2023-05-11T07:34:04;97135.44;;;12.72;100.00
4814;BME280;15375;48.540;9.268;2023-05-11T07:36:29;97150.00;;;12.82;100.00
4814;BME280;15375;48.540;9.268;2023-05-11T07:38:54;97154.28;;;12.70;100.00
4814;BME280;15375;48.540;9.268;2023-05-11T07:41:22;97141.03;;;12.81;100.00
4814;BME280;15375;48.540;9.268;2023-05-11T07:43:51;97149.22;;;12.81;100.00
4814;BME280;15375;48.540;9.268;2023-05-11T07:46:16;97154.06;;;12.77;100.00
4814;BME280;15375;48.540;9.268;2023-05-11T07:48:41;97136.78;;;12.80;100.00
4814;BME280;15375;48.540;9.268;2023-05-11T07:51:06;97126.78;;;12.87;100.00
4814;BME280;15375;48.540;9.268;2023-05-11T07:53:32;97139.09;;;13.07;100.00
4814;BME280;15375;48.540;9.268;2023-05-11T07:55:58;97126.81;;;13.12;100.00
4814;BME280;15375;48.540;9.268;2023-05-11T07:58:24;97120.94;;;13.13;100.00
4814;BME280;15375;48.540;9.268;2023-05-11T08:00:50;97116.97;;;13.14;100.00
4814;BME280;15375;48.540;9.268;2023-05-11T08:03:15;97126.81;;;13.24;100.00
4814;BME280;15375;48.540;9.268;2023-05-11T08:05:41;97135.56;;;12.94;100.00
4814;BME280;15375;48.540;9.268;2023-05-11T08:08:06;97154.44;;;13.17;100.00
4814;BME280;15375;48.540;9.268;2023-05-11T08:10:32;97160.13;;;13.35;100.00
4814;BME280;15375;48.540;9.268;2023-05-11T08:12:57;97147.97;;;13.36;100.00
4814;BME280;15375;48.540;9.268;2023-05-11T08:15:23;97145.00;;;13.43;100.00
4814;BME280;15375;48.540;9.268;2023-05-11T08:17:48;97151.81;;;13.52;100.00
4814;BME280;15375;48.540;9.268;2023-05-11T08:20:14;97141.81;;;13.32;100.00
4814;BME280;15375;48.540;9.268;2023-05-11T08:22:39;97131.66;;;13.20;100.00
4814;BME280;15375;48.540;9.268;2023-05-11T08:25:06;97138.53;;;13.37;100.00
4814;BME280;15375;48.540;9.268;2023-05-11T08:27:31;97145.56;;;13.38;100.00
4814;BME280;15375;48.540;9.268;2023-05-11T08:29:56;97140.69;;;13.55;100.00
4814;BME280;15375;48.540;9.268;2023-05-11T08:32:22;97145.00;;;13.56;100.00
4814;BME280;15375;48.540;9.268;2023-05-11T08:34:47;97138.81;;;13.65;100.00
4814;BME280;15375;48.540;9.268;2023-05-11T08:37:12;97136.06;;;13.65;100.00
4814;BME280;15375;48.540;9.268;2023-05-11T08:39:38;97128.53;;;13.69;100.00
4814;BME280;15375;48.540;9.268;2023-05-11T08:42:05;97138.75;;;13.90;100.00
4814;BME280;15375;48.540;9.268;2023-05-11T08:44:34;97118.25;;;13.48;100.00
4814;BME280;15375;48.540;9.268;2023-05-11T08:47:02;97140.38;;;13.66;100.00
4814;BME280;15375;48.540;9.268;2023-05-11T08:49:29;97138.41;;;13.54;100.00
4814;BME280;15375;48.540;9.268;2023-05-11T08:51:55;97147.63;;;13.47;100.00
4814;BME280;15375;48.540;9.268;2023-05-11T08:54:20;97123.31;;;13.36;100.00
4814;BME280;15375;48.540;9.268;2023-05-11T08:56:46;97151.53;;;13.71;100.00
4814;BME280;15375;48.540;9.268;2023-05-11T08:59:12;97152.09;;;13.66;100.00
4814;BME280;15375;48.540;9.268;2023-05-11T09:01:40;97139.06;;;13.58;100.00
4814;BME280;15375;48.540;9.268;2023-05-11T09:04:05;97123.50;;;13.42;100.00
4814;BME280;15375;48.540;9.268;2023-05-11T09:06:31;97138.44;;;13.28;100.00
4814;BME280;15375;48.540;9.268;2023-05-11T09:08:58;97146.75;;;13.50;100.00
4814;BME280;15375;48.540;9.268;2023-05-11T09:11:24;97095.59;;;13.34;100.00
4814;BME280;15375;48.540;9.268;2023-05-11T09:13:50;97133.44;;;13.74;100.00
4814;BME280;15375;48.540;9.268;2023-05-11T09:16:15;97108.66;;;13.65;100.00
4814;BME280;15375;48.540;9.268;2023-05-11T09:18:49;97102.06;;;13.40;100.00
4814;BME280;15375;48.540;9.268;2023-05-11T09:21:15;97130.28;;;13.63;100.00
4814;BME280;15375;48.540;9.268;2023-05-11T09:23:40;97119.91;;;13.45;100.00
4814;BME280;15375;48.540;9.268;2023-05-11T09:26:16;97138.41;;;13.54;100.00
4814;BME280;15375;48.540;9.268;2023-05-11T09:28:52;97143.56;;;13.52;100.00
4814;BME280;15375;48.540;9.268;2023-05-11T09:31:43;97141.47;;;13.56;100.00
4814;BME280;15375;48.540;9.268;2023-05-11T09:34:20;97147.28;;;13.58;100.00
4814;BME280;15375;48.540;9.268;2023-05-11T09:36:50;97146.19;;;13.55;100.00
4814;BME280;15375;48.540;9.268;2023-05-11T09:39:17;97141.41;;;13.47;100.00
4814;BME280;15375;48.540;9.268;2023-05-11T09:41:45;97139.28;;;13.51;100.00
4814;BME280;15375;48.540;9.268;2023-05-11T09:44:15;97124.97;;;13.47;100.00
4814;BME280;15375;48.540;9.268;2023-05-11T09:46:42;97128.88;;;13.58;100.00
4814;BME280;15375;48.540;9.268;2023-05-11T09:49:09;97149.78;;;13.65;100.00
4814;BME280;15375;48.540;9.268;2023-05-11T09:51:36;97136.91;;;13.27;100.00
4814;BME280;15375;48.540;9.268;2023-05-11T09:54:22;97151.59;;;13.33;100.00
4814;BME280;15375;48.540;9.268;2023-05-11T09:56:48;97146.91;;;13.21;100.00
4814;BME280;15375;48.540;9.268;2023-05-11T09:59:15;97141.97;;;13.16;100.00
4814;BME280;15375;48.540;9.268;2023-05-11T10:01:41;97141.19;;;13.28;100.00
4814;BME280;15375;48.540;9.268;2023-05-11T10:04:07;97135.81;;;13.12;100.00
4814;BME280;15375;48.540;9.268;2023-05-11T10:06:48;97146.44;;;13.10;100.00
4814;BME280;15375;48.540;9.268;2023-05-11T10:09:15;97149.25;;;12.94;100.00
4814;BME280;15375;48.540;9.268;2023-05-11T10:11:45;97133.25;;;12.80;100.00
4814;BME280;15375;48.540;9.268;2023-05-11T10:14:12;97113.66;;;12.69;100.00
4814;BME280;15375;48.540;9.268;2023-05-11T10:16:40;97125.69;;;12.84;100.00
4814;BME280;15375;48.540;9.268;2023-05-11T10:19:06;97107.75;;;12.83;100.00
4814;BME280;15375;48.540;9.268;2023-05-11T10:21:33;97129.53;;;12.99;100.00
4814;BME280;15375;48.540;9.268;2023-05-11T10:23:59;97106.13;;;12.73;100.00
4814;BME280;15375;48.540;9.268;2023-05-11T10:26:26;97128.78;;;12.86;100.00
4814;BME280;15375;48.540;9.268;2023-05-11T10:28:52;97142.34;;;13.02;100.00
4814;BME280;15375;48.540;9.268;2023-05-11T10:31:19;97094.41;;;12.85;100.00
4814;BME280;15375;48.540;9.268;2023-05-11T10:33:50;97110.06;;;13.10;100.00
4814;BME280;15375;48.540;9.268;2023-05-11T10:36:17;97138.78;;;13.30;100.00
4814;BME280;15375;48.540;9.268;2023-05-11T10:38:42;97122.00;;;13.28;100.00
4814;BME280;15375;48.540;9.268;2023-05-11T10:44:05;97139.88;;;13.33;100.00
4814;BME280;15375;48.540;9.268;2023-05-11T10:46:55;97127.28;;;13.10;100.00
4814;BME280;15375;48.540;9.268;2023-05-11T10:52:32;97135.03;;;13.12;100.00
4814;BME280;15375;48.540;9.268;2023-05-11T11:03:13;97109.28;;;12.84;100.00
4814;BME280;15375;48.540;9.268;2023-05-11T11:05:39;97089.47;;;12.93;100.00
4814;BME280;15375;48.540;9.268;2023-05-11T11:08:08;97122.88;;;13.38;100.00
4814;BME280;15375;48.540;9.268;2023-05-11T11:10:41;97099.00;;;13.38;100.00
4814;BME280;15375;48.540;9.268;2023-05-11T11:13:12;97061.09;;;12.74;100.00
4814;BME280;15375;48.540;9.268;2023-05-11T11:18:26;97122.13;;;13.25;100.00
4814;BME280;15375;48.540;9.268;2023-05-11T11:20:54;97096.69;;;13.24;100.00
4814;BME280;15375;48.540;9.268;2023-05-11T11:26:04;97115.19;;;13.46;100.00
4814;BME280;15375;48.540;9.268;2023-05-11T11:31:30;97108.03;;;13.61;100.00
4814;BME280;15375;48.540;9.268;2023-05-11T11:33:57;97127.13;;;13.52;100.00
4814;BME280;15375;48.540;9.268;2023-05-11T11:39:27;97110.00;;;13.60;100.00
4814;BME280;15375;48.540;9.268;2023-05-11T11:42:03;97115.63;;;13.57;100.00
4814;BME280;15375;48.540;9.268;2023-05-11T11:44:29;97102.22;;;13.59;100.00
4814;BME280;15375;48.540;9.268;2023-05-11T11:49:38;97100.41;;;13.77;100.00
4814;BME280;15375;48.540;9.268;2023-05-11T11:52:04;97111.47;;;13.86;100.00
4814;BME280;15375;48.540;9.268;2023-05-11T11:54:36;97107.94;;;13.64;100.00
4814;BME280;15375;48.540;9.268;2023-05-11T11:57:02;97093.00;;;13.65;100.00
4814;BME280;15375;48.540;9.268;2023-05-11T11:59:29;97099.09;;;13.82;100.00
4814;BME280;15375;48.540;9.268;2023-05-11T12:01:55;97114.06;;;13.90;100.00
4814;BME280;15375;48.540;9.268;2023-05-11T12:04:42;97103.59;;;13.41;100.00
4814;BME280;15375;48.540;9.268;2023-05-11T12:07:09;97094.06;;;13.33;100.00
4814;BME280;15375;48.540;9.268;2023-05-11T12:09:35;97113.00;;;13.40;100.00
4814;BME280;15375;48.540;9.268;2023-05-11T12:12:02;97112.38;;;13.24;100.00
4814;BME280;15375;48.540;9.268;2023-05-11T12:14:30;97109.19;;;13.25;100.00
4814;BME280;15375;48.540;9.268;2023-05-11T12:17:03;97090.25;;;12.93;100.00
4814;BME280;15375;48.540;9.268;2023-05-11T12:19:29;97118.75;;;13.08;100.00
4814;BME280;15375;48.540;9.268;2023-05-11T12:21:55;97084.47;;;13.16;100.00
4814;BME280;15375;48.540;9.268;2023-05-11T12:24:21;97097.91;;;13.23;100.00
4814;BME280;15375;48.540;9.268;2023-05-11T12:26:46;97086.75;;;13.18;100.00
4814;BME280;15375;48.540;9.268;2023-05-11T12:29:13;97110.31;;;13.15;100.00
4814;BME280;15375;48.540;9.268;2023-05-11T12:31:43;97080.41;;;13.08;100.00
4814;BME280;15375;48.540;9.268;2023-05-11T12:34:13;97106.13;;;13.36;100.00
4814;BME280;15375;48.540;9.268;2023-05-11T12:36:39;97101.47;;;13.58;100.00
4814;BME280;15375;48.540;9.268;2023-05-11T12:39:05;97074.31;;;13.51;100.00
4814;BME280;15375;48.540;9.268;2023-05-11T12:41:30;97094.56;;;13.54;100.00
4814;BME280;15375;48.540;9.268;2023-05-11T12:43:56;97069.50;;;13.42;100.00
4814;BME280;15375;48.540;9.268;2023-05-11T12:46:22;97065.28;;;13.16;100.00
4814;BME280;15375;48.540;9.268;2023-05-11T12:48:48;97051.53;;;13.41;100.00
4814;BME280;15375;48.540;9.268;2023-05-11T12:54:28;97087.75;;;13.58;100.00
4814;BME280;15375;48.540;9.268;2023-05-11T12:56:54;97088.72;;;13.77;100.00
4814;BME280;15375;48.540;9.268;2023-05-11T13:04:30;97071.44;;;13.89;100.00
4814;BME280;15375;48.540;9.268;2023-05-11T13:06:56;97066.16;;;14.16;100.00
4814;BME280;15375;48.540;9.268;2023-05-11T13:09:24;97076.84;;;14.23;100.00
4814;BME280;15375;48.540;9.268;2023-05-11T13:14:49;97055.88;;;13.86;100.00
4814;BME280;15375;48.540;9.268;2023-05-11T13:17:32;97062.25;;;14.04;100.00
4814;BME280;15375;48.540;9.268;2023-05-11T13:20:16;97056.31;;;14.06;100.00
4814;BME280;15375;48.540;9.268;2023-05-11T13:22:42;97048.63;;;13.92;100.00
4814;BME280;15375;48.540;9.268;2023-05-11T13:25:08;97052.41;;;13.73;100.00
4814;BME280;15375;48.540;9.268;2023-05-11T13:27:34;97044.50;;;13.75;99.77
4814;BME280;15375;48.540;9.268;2023-05-11T13:30:01;97037.13;;;13.84;95.20
4814;BME280;15375;48.540;9.268;2023-05-11T13:32:27;97056.06;;;14.13;94.56
4814;BME280;15375;48.540;9.268;2023-05-11T13:34:52;97028.16;;;13.84;85.76
4814;BME280;15375;48.540;9.268;2023-05-11T13:37:18;97021.25;;;14.01;87.69
4814;BME280;15375;48.540;9.268;2023-05-11T13:39:43;97041.91;;;14.36;88.23
4814;BME280;15375;48.540;9.268;2023-05-11T13:42:09;97028.09;;;13.96;84.69
4814;BME280;15375;48.540;9.268;2023-05-11T13:44:34;97027.88;;;13.91;87.13
4814;BME280;15375;48.540;9.268;2023-05-11T13:46:59;97027.13;;;13.90;90.47